Dalhart Municipal Airport Dalhart US
ICAO: KDHT
IATA: DHT
Category: Medium
Scheduled Services: No

Elevation: 3991 ft
TransAlt. 18000 ft.

Airport Communications:
ASOS:134.075
ALBUQUERQUE CNTR:127.85
FORT WORTH RDO:122.2
CTAF/UNICOM:122.95

KDHT Zoom In..

Runways:

(A) RW 03 length 5440 ft width 75 ft
---- / hdg 36

(B) RW 17 length 6400 ft width 75 ft
---- / hdg 171

(C) RW 21 length 5440 ft width 75 ft
---- / hdg 216

(D) RW 35 length 6400 ft width 75 ft
---- / hdg 351

Location; KDHT
Day. 23 / Time. 07.53 Zulu
* Altimeter: 30.15
* Temperature: 23° c. 73.4°f.
* Wind from: 060° Speed 09 kn.
Dewpoint: 14° c.
Visibility: 10 Statute Miles.
Clouds: Clear (automated report).

KDHT 230753Z AUTO 06009KT 10SM CLR 23/14 A3015 RMK AO2 SLP134 T02330139


Wind From 060°
Speed 09 kn.

 
 
jpsmedia.com for Web Design worldairports.se 2018   terms of use